Time;durP1;ratioP1;P1;durP2;ratioP2;P2;SDS_P1;SDS_P2;PMS_P1;PMS_P2;Temp;Humidity;BMP_temperature;BMP_pressure;BME280_temperature;BME280_humidity;BME280_pressure;Samples;Min_cycle;Max_cycle;Signal;HPM_P1;HPM_P2
2021/06/22 04:30:56;;;;;;;7.80;3.60;;;17.40;99.90;;;;;;6037404;23;20392;-76
2021/06/22 04:33:21;;;;;;;4.90;3.97;;;17.50;99.90;;;;;;4979144;28;20418;-77
2021/06/22 04:35:47;;;;;;;5.00;4.50;;;17.50;99.90;;;;;;4995382;28;20319;-77
2021/06/22 04:38:12;;;;;;;5.20;3.80;;;17.50;99.90;;;;;;4989995;28;20653;-77
2021/06/22 04:40:39;;;;;;;4.70;3.93;;;17.50;99.90;;;;;;4981481;28;20187;-77
2021/06/22 04:43:06;;;;;;;3.40;3.10;;;17.60;99.90;;;;;;4990569;28;20179;-76
2021/06/22 04:45:33;;;;;;;4.23;3.93;;;17.50;99.90;;;;;;4991611;28;20592;-77
2021/06/22 04:48:01;;;;;;;4.13;3.73;;;17.60;99.90;;;;;;4973998;28;20470;-76
2021/06/22 04:50:27;;;;;;;8.03;6.97;;;17.70;99.90;;;;;;4991480;28;20860;-77
2021/06/22 04:52:53;;;;;;;4.30;4.00;;;17.70;99.90;;;;;;4991173;28;20478;-77
2021/06/22 04:55:24;;;;;;;4.93;4.33;;;17.80;99.90;;;;;;4994006;28;20453;-79
2021/06/22 04:57:50;;;;;;;4.50;4.20;;;17.90;99.90;;;;;;4994930;28;20168;-76
2021/06/22 05:00:16;;;;;;;7.07;4.47;;;18.00;99.90;;;;;;4994620;28;20480;-76
2021/06/22 05:02:43;;;;;;;8.70;5.07;;;18.10;99.90;;;;;;4994707;28;20434;-74
2021/06/22 05:05:10;;;;;;;6.60;4.13;;;18.10;99.90;;;;;;4994579;28;20764;-77
2021/06/22 05:07:36;;;;;;;11.13;5.13;;;18.10;99.90;;;;;;4994548;28;20462;-77
2021/06/22 05:10:03;;;;;;;5.83;4.97;;;18.20;99.90;;;;;;4994338;28;20937;-77
2021/06/22 05:12:28;;;;;;;6.80;6.30;;;18.20;99.90;;;;;;4994450;28;20266;-77
2021/06/22 05:14:54;;;;;;;12.00;7.40;;;18.20;99.90;;;;;;4994257;28;20493;-77
2021/06/22 05:17:20;;;;;;;12.70;8.40;;;18.20;99.90;;;;;;4994184;28;20210;-77
2021/06/22 05:19:45;;;;;;;12.67;8.43;;;18.20;99.90;;;;;;4976764;28;20523;-76
2021/06/22 05:22:12;;;;;;;8.57;7.87;;;18.20;99.90;;;;;;4994335;28;20293;-77
2021/06/22 05:24:38;;;;;;;13.20;9.17;;;18.30;99.90;;;;;;4994147;28;20603;-77
2021/06/22 05:27:04;;;;;;;13.17;10.13;;;18.30;99.90;;;;;;4993973;28;20466;-77
2021/06/22 05:29:29;;;;;;;9.20;7.50;;;18.40;99.90;;;;;;4994327;28;20175;-77
2021/06/22 05:31:55;;;;;;;17.07;8.13;;;18.40;99.90;;;;;;4993893;28;20509;-77
2021/06/22 05:34:21;;;;;;;7.23;6.53;;;18.40;99.90;;;;;;4993836;28;20171;-77
2021/06/22 05:36:46;;;;;;;9.43;8.60;;;18.50;99.90;;;;;;4994074;28;20198;-77
2021/06/22 05:39:12;;;;;;;13.50;9.33;;;18.60;99.90;;;;;;4993861;28;20186;-77
2021/06/22 05:41:37;;;;;;;14.80;9.53;;;18.60;99.90;;;;;;4994552;28;20227;-77
2021/06/22 05:44:04;;;;;;;13.30;9.37;;;18.60;99.90;;;;;;4993616;28;20187;-77
2021/06/22 05:46:30;;;;;;;10.90;9.00;;;18.60;99.90;;;;;;4994561;28;20687;-76
2021/06/22 05:48:55;;;;;;;12.00;8.60;;;18.70;99.90;;;;;;4993972;28;20506;-77
2021/06/22 05:51:21;;;;;;;10.23;8.13;;;18.70;99.90;;;;;;4994017;28;20262;-77
2021/06/22 05:53:46;;;;;;;9.90;8.53;;;18.70;99.90;;;;;;4976117;28;20178;-77
2021/06/22 05:56:12;;;;;;;8.93;8.07;;;18.70;99.90;;;;;;4993758;28;20183;-77
2021/06/22 05:58:37;;;;;;;12.60;8.60;;;18.80;99.90;;;;;;4993541;28;20183;-76
2021/06/22 06:01:03;;;;;;;12.30;10.20;;;18.90;99.90;;;;;;4993618;28;20564;-76
2021/06/22 06:03:28;;;;;;;11.67;9.47;;;18.90;99.90;;;;;;4993439;28;20184;-77
2021/06/22 06:05:54;;;;;;;13.63;9.27;;;19.00;99.90;;;;;;4993096;28;20285;-77
2021/06/22 06:08:20;;;;;;;12.50;9.10;;;19.00;99.90;;;;;;4993398;28;20779;-77
2021/06/22 06:10:45;;;;;;;11.80;8.80;;;19.10;99.90;;;;;;4993712;28;20176;-77
2021/06/22 06:13:11;;;;;;;10.30;9.20;;;19.10;99.90;;;;;;4993091;28;20251;-76
2021/06/22 06:15:36;;;;;;;11.13;9.10;;;19.10;99.90;;;;;;4993584;28;20183;-77
2021/06/22 06:18:03;;;;;;;13.40;9.27;;;19.10;99.90;;;;;;4993187;28;20234;-77
2021/06/22 06:20:29;;;;;;;19.33;9.60;;;19.20;99.90;;;;;;4993546;28;20189;-77
2021/06/22 06:22:55;;;;;;;12.83;10.50;;;19.20;99.90;;;;;;4993073;28;20873;-77
2021/06/22 06:25:20;;;;;;;13.07;10.50;;;19.30;99.90;;;;;;4993441;28;20505;-76
2021/06/22 06:27:55;;;;;;;11.57;10.47;;;19.30;99.90;;;;;;4975758;28;20465;-76
2021/06/22 06:30:25;;;;;;;15.27;11.10;;;19.30;99.90;;;;;;4993133;28;20178;-76
2021/06/22 06:32:52;;;;;;;11.60;10.40;;;19.20;99.90;;;;;;4992612;28;21001;-76
2021/06/22 06:35:19;;;;;;;12.30;10.33;;;19.30;99.90;;;;;;4992803;28;20480;-77
2021/06/22 06:37:45;;;;;;;16.00;11.37;;;19.30;99.90;;;;;;4992835;28;20411;-78
2021/06/22 06:40:11;;;;;;;20.10;12.10;;;19.30;99.90;;;;;;4992826;28;20417;-77
2021/06/22 06:42:38;;;;;;;14.37;12.30;;;19.40;99.90;;;;;;4992902;28;20442;-75
2021/06/22 06:45:06;;;;;;;13.60;11.90;;;19.40;99.90;;;;;;4992718;28;20179;-76
2021/06/22 06:47:31;;;;;;;17.40;13.60;;;19.50;99.90;;;;;;4992897;28;21033;-77
2021/06/22 06:49:57;;;;;;;16.73;11.87;;;19.80;99.90;;;;;;4992831;28;20418;-77
2021/06/22 06:52:22;;;;;;;14.60;12.60;;;20.00;99.90;;;;;;4992694;28;20584;-76
2021/06/22 06:54:48;;;;;;;19.17;13.00;;;20.20;99.90;;;;;;4993732;28;20180;-77
2021/06/22 06:57:13;;;;;;;12.60;11.33;;;20.30;99.90;;;;;;4992626;28;20181;-77
2021/06/22 06:59:39;;;;;;;13.37;10.63;;;20.30;99.90;;;;;;4992479;28;20203;-76
2021/06/22 07:02:04;;;;;;;13.20;11.77;;;20.40;99.90;;;;;;4992586;28;20599;-77
2021/06/22 07:04:32;;;;;;;12.67;11.50;;;20.40;99.90;;;;;;4975156;28;20658;-76
2021/06/22 07:06:58;;;;;;;12.80;11.50;;;20.40;99.90;;;;;;4992693;28;20202;-77
2021/06/22 07:09:23;;;;;;;12.03;10.80;;;20.40;99.90;;;;;;4992085;28;20434;-77
2021/06/22 07:11:49;;;;;;;13.70;11.53;;;20.50;99.90;;;;;;4992371;28;20661;-77
2021/06/22 07:14:14;;;;;;;11.07;9.97;;;20.70;99.90;;;;;;4992092;28;20171;-78
2021/06/22 07:16:41;;;;;;;14.73;11.60;;;20.80;99.90;;;;;;4991707;28;20172;-78
2021/06/22 07:19:07;;;;;;;10.27;9.33;;;20.90;99.90;;;;;;4991849;28;20176;-78
2021/06/22 07:21:32;;;;;;;10.57;9.67;;;21.00;99.90;;;;;;4992101;28;20803;-78
2021/06/22 07:23:58;;;;;;;11.00;10.00;;;21.10;99.90;;;;;;4991687;28;20414;-79
2021/06/22 07:26:23;;;;;;;11.33;10.20;;;21.30;99.90;;;;;;4992043;28;20717;-78
2021/06/22 07:28:49;;;;;;;9.20;8.33;;;21.30;99.90;;;;;;4974764;28;20560;-78
2021/06/22 07:31:15;;;;;;;11.90;8.87;;;21.20;99.90;;;;;;4991918;28;20242;-78
2021/06/22 07:33:41;;;;;;;10.07;9.10;;;21.30;99.90;;;;;;4991905;28;20249;-78
2021/06/22 07:36:08;;;;;;;8.00;7.40;;;21.40;99.90;;;;;;4992000;28;20183;-78
2021/06/22 07:38:34;;;;;;;9.30;7.43;;;21.50;99.90;;;;;;4991857;28;20495;-78
2021/06/22 07:40:59;;;;;;;9.40;8.60;;;21.70;99.90;;;;;;4991942;28;20524;-78
2021/06/22 07:43:25;;;;;;;7.93;7.27;;;21.70;99.90;;;;;;4991765;28;20915;-79
2021/06/22 07:45:50;;;;;;;8.77;6.70;;;21.70;99.90;;;;;;4991889;28;20677;-78
2021/06/22 07:48:16;;;;;;;15.13;8.60;;;21.80;99.90;;;;;;4991737;28;20205;-78
2021/06/22 07:50:42;;;;;;;11.17;8.10;;;21.80;99.90;;;;;;4991894;28;20195;-78
2021/06/22 07:53:08;;;;;;;11.07;7.30;;;21.70;99.90;;;;;;4991724;28;20171;-78
2021/06/22 07:55:33;;;;;;;9.80;8.87;;;21.80;99.90;;;;;;4974406;28;20685;-80
2021/06/22 07:57:59;;;;;;;10.30;9.50;;;21.90;99.90;;;;;;4991930;28;20258;-78
2021/06/22 08:03:09;;;;;;;9.30;8.30;;;22.20;99.90;;;;;;4991847;28;20271;-79
2021/06/22 08:05:35;;;;;;;13.73;8.37;;;22.80;99.90;;;;;;4992070;28;20438;-79
2021/06/22 08:08:00;;;;;;;9.37;8.37;;;23.70;99.90;;;;;;4992928;28;20501;-78
2021/06/22 08:10:26;;;;;;;9.67;7.50;;;24.10;99.90;;;;;;4992191;28;20180;-78
2021/06/22 08:12:52;;;;;;;7.40;6.70;;;24.40;99.90;;;;;;4991883;28;20286;-78
2021/06/22 08:15:18;;;;;;;14.03;7.27;;;24.30;99.90;;;;;;4991922;28;20403;-79
2021/06/22 08:17:43;;;;;;;7.70;6.17;;;24.10;99.90;;;;;;4991757;28;20210;-79
2021/06/22 08:20:11;;;;;;;7.67;6.97;;;23.90;99.90;;;;;;4992015;28;20182;-78
2021/06/22 08:22:37;;;;;;;9.43;7.00;;;23.70;99.90;;;;;;4991778;28;20211;-77
2021/06/22 08:25:05;;;;;;;7.90;6.80;;;23.60;99.90;;;;;;4991817;28;20422;-79
2021/06/22 08:27:31;;;;;;;10.23;8.23;;;23.30;99.90;;;;;;4991713;28;20994;-78
2021/06/22 08:29:56;;;;;;;7.73;7.03;;;23.00;99.90;;;;;;4995810;28;20453;-79
2021/06/22 08:32:23;;;;;;;8.43;6.00;;;22.70;99.90;;;;;;4995172;28;20207;-79
2021/06/22 08:34:49;;;;;;;9.80;6.60;;;22.60;99.90;;;;;;4995226;28;20602;-79
2021/06/22 08:37:14;;;;;;;14.70;7.73;;;22.50;99.90;;;;;;4995606;28;20501;-80
2021/06/22 08:39:40;;;;;;;7.97;7.23;;;22.30;99.90;;;;;;4995561;28;20559;-78
2021/06/22 08:42:09;;;;;;;9.87;7.60;;;22.10;99.90;;;;;;4995411;28;20203;-78
2021/06/22 08:44:38;;;;;;;10.13;8.83;;;21.90;99.90;;;;;;4995067;28;20188;-78
2021/06/22 08:47:03;;;;;;;9.63;8.67;;;21.90;99.90;;;;;;4995092;28;20552;-77
2021/06/22 08:49:32;;;;;;;10.90;9.00;;;21.70;99.90;;;;;;4995194;28;20450;-80
2021/06/22 08:51:59;;;;;;;8.87;8.07;;;21.50;99.90;;;;;;4995025;28;20192;-78
2021/06/22 08:54:25;;;;;;;12.17;9.53;;;21.50;99.90;;;;;;4994569;28;20934;-78
2021/06/22 08:56:50;;;;;;;13.63;9.43;;;21.50;99.90;;;;;;4994904;28;20414;-78
2021/06/22 08:59:16;;;;;;;13.30;10.10;;;21.40;99.90;;;;;;4977272;28;20179;-79
2021/06/22 09:01:41;;;;;;;14.17;11.03;;;21.30;99.90;;;;;;4994457;28;20310;-78
2021/06/22 09:04:07;;;;;;;11.00;9.90;;;21.20;99.90;;;;;;4976941;28;20636;-75
2021/06/22 09:06:41;;;;;;;11.03;8.50;;;21.30;99.90;;;;;;4994426;28;20215;-78
2021/06/22 09:09:09;;;;;;;13.00;10.60;;;21.30;99.90;;;;;;4994488;28;20175;-79
2021/06/22 09:11:35;;;;;;;11.70;10.33;;;21.40;99.90;;;;;;4994595;28;20473;-79
2021/06/22 09:14:02;;;;;;;10.60;9.50;;;21.40;99.90;;;;;;4994464;28;20453;-79
2021/06/22 09:16:29;;;;;;;10.30;9.30;;;21.30;99.90;;;;;;4994293;28;20787;-78
2021/06/22 09:19:05;;;;;;;11.37;10.00;;;21.30;99.90;;;;;;4995251;28;20923;-76
2021/06/22 09:21:42;;;;;;;12.03;9.83;;;21.20;99.90;;;;;;4994496;28;20437;-73
2021/06/22 09:24:19;;;;;;;11.87;10.37;;;21.10;99.90;;;;;;4993828;28;20510;-73
2021/06/22 09:26:47;;;;;;;11.10;9.90;;;21.00;99.90;;;;;;4994205;28;20540;-75
2021/06/22 09:29:15;;;;;;;10.40;9.40;;;21.00;99.90;;;;;;4994147;28;20872;-74
2021/06/22 09:31:58;;;;;;;12.10;10.80;;;20.90;99.90;;;;;;4993887;28;20488;-74
2021/06/22 09:34:25;;;;;;;11.60;10.60;;;20.90;99.90;;;;;;4993960;28;21123;-73
2021/06/22 09:36:58;;;;;;;14.70;10.47;;;20.90;99.90;;;;;;4994029;28;20423;-74
2021/06/22 09:39:25;;;;;;;11.30;9.00;;;20.90;99.90;;;;;;4993017;28;20414;-74
2021/06/22 09:41:52;;;;;;;12.40;11.10;;;20.90;99.90;;;;;;4994739;28;20954;-74
2021/06/22 09:44:30;;;;;;;11.07;10.00;;;21.00;99.90;;;;;;4994937;28;20418;-74
2021/06/22 09:46:57;;;;;;;11.00;9.90;;;21.00;99.90;;;;;;4993923;28;20505;-74
2021/06/22 09:49:31;;;;;;;12.93;10.97;;;21.10;99.90;;;;;;4993485;28;20915;-74
2021/06/22 09:52:08;;;;;;;11.47;10.53;;;21.10;99.90;;;;;;4993867;28;20867;-74
2021/06/22 09:54:41;;;;;;;14.50;9.23;;;21.10;99.90;;;;;;4993443;28;20834;-74
2021/06/22 09:57:16;;;;;;;12.17;10.07;;;21.20;99.90;;;;;;4993737;28;20547;-74
2021/06/22 09:59:54;;;;;;;11.80;10.80;;;21.20;99.90;;;;;;4993702;28;20789;-76
2021/06/22 10:02:24;;;;;;;12.07;10.53;;;21.50;99.90;;;;;;4993395;28;20441;-76
2021/06/22 10:04:52;;;;;;;13.60;10.27;;;21.60;99.90;;;;;;4993325;28;20435;-74
2021/06/22 10:07:21;;;;;;;11.63;10.50;;;21.60;99.90;;;;;;4993552;28;20457;-76
2021/06/22 10:09:58;;;;;;;13.23;10.20;;;21.60;99.90;;;;;;4993389;28;20422;-76
2021/06/22 10:12:25;;;;;;;10.27;9.33;;;21.60;99.90;;;;;;4994176;28;20430;-74
2021/06/22 10:14:56;;;;;;;10.57;8.70;;;21.50;99.90;;;;;;4993048;28;20554;-74
2021/06/22 10:17:24;;;;;;;9.90;8.90;;;21.50;99.90;;;;;;4993148;28;20413;-74
2021/06/22 10:19:56;;;;;;;8.40;7.70;;;21.50;99.90;;;;;;4993310;28;20415;-74
2021/06/22 10:22:25;;;;;;;8.80;8.10;;;21.70;99.90;;;;;;4993015;28;20438;-75
2021/06/22 10:24:51;;;;;;;8.60;7.80;;;22.10;99.90;;;;;;4993293;28;20415;-74
2021/06/22 10:27:19;;;;;;;8.70;7.90;;;22.30;99.90;;;;;;4993323;28;20465;-74
2021/06/22 10:29:47;;;;;;;6.93;6.33;;;22.30;99.90;;;;;;4976743;28;20223;-74
2021/06/22 10:32:14;;;;;;;7.80;6.03;;;22.40;99.90;;;;;;4993659;28;20521;-75
2021/06/22 10:34:45;;;;;;;5.43;5.00;;;22.50;99.90;;;;;;4993361;28;20438;-75
2021/06/22 10:37:22;;;;;;;8.83;5.37;;;22.60;99.90;;;;;;4993649;28;20915;-74
2021/06/22 10:39:51;;;;;;;5.83;5.43;;;22.40;99.90;;;;;;4993441;28;20824;-74
2021/06/22 10:42:17;;;;;;;6.40;5.67;;;22.20;99.90;;;;;;4993151;28;20517;-78
2021/06/22 10:44:49;;;;;;;6.00;5.53;;;22.00;99.90;;;;;;4993499;28;20450;-76
2021/06/22 10:47:19;;;;;;;6.20;5.60;;;21.80;99.90;;;;;;4992514;28;20458;-76
2021/06/22 10:50:11;;;;;;;10.13;5.97;;;21.50;99.90;;;;;;4993034;28;20418;-76
2021/06/22 10:52:43;;;;;;;5.60;5.10;;;21.20;99.90;;;;;;4992488;28;21001;-77
2021/06/22 10:55:09;;;;;;;5.70;5.10;;;21.00;99.90;;;;;;4992508;28;20789;-76
2021/06/22 10:57:56;;;;;;;7.47;6.13;;;20.80;99.90;;;;;;4992509;28;20423;-76
2021/06/22 11:00:30;;;;;;;7.20;6.60;;;20.70;99.90;;;;;;4992059;28;20175;-76
2021/06/22 11:03:02;;;;;;;8.00;7.00;;;20.60;99.90;;;;;;4992309;28;20585;-76
2021/06/22 11:05:29;;;;;;;11.50;8.87;;;20.50;99.90;;;;;;4992548;28;20425;-76
2021/06/22 11:08:28;;;;;;;10.37;9.37;;;20.40;99.90;;;;;;4992537;28;20458;-77
2021/06/22 11:10:56;;;;;;;10.40;9.37;;;20.30;99.90;;;;;;4992711;28;20908;-76
2021/06/22 11:13:46;;;;;;;8.87;7.93;;;20.20;99.90;;;;;;4992015;28;20420;-76
2021/06/22 11:16:17;;;;;;;8.87;7.97;;;20.20;99.90;;;;;;4992262;28;20777;-76
2021/06/22 11:18:57;;;;;;;9.33;8.43;;;20.20;99.90;;;;;;4992298;28;20457;-77
2021/06/22 11:21:35;;;;;;;9.80;8.90;;;20.20;99.90;;;;;;4992001;28;20430;-76
2021/06/22 11:24:19;;;;;;;8.57;7.77;;;20.00;99.90;;;;;;4992209;28;20410;-76
2021/06/22 11:26:45;;;;;;;9.13;8.23;;;20.00;99.90;;;;;;4992110;28;20955;-76
2021/06/22 11:29:13;;;;;;;7.70;6.80;;;20.00;99.90;;;;;;4974688;28;20489;-76
2021/06/22 11:31:45;;;;;;;8.90;7.40;;;20.10;99.90;;;;;;4991941;28;20655;-75
2021/06/22 11:34:13;;;;;;;10.60;7.77;;;20.00;99.90;;;;;;4991719;28;20826;-74
2021/06/22 11:36:44;;;;;;;9.00;7.80;;;20.00;99.90;;;;;;4992016;28;20414;-75
2021/06/22 11:39:16;;;;;;;10.77;7.47;;;20.00;99.90;;;;;;4991799;28;20879;-77
2021/06/22 11:42:02;;;;;;;8.83;8.00;;;19.90;99.90;;;;;;4992016;28;20469;-77
2021/06/22 11:44:28;;;;;;;10.77;7.77;;;19.90;99.90;;;;;;4935557;29;20993;-77
2021/06/22 11:46:53;;;;;;;16.90;9.70;;;19.80;99.90;;;;;;4953139;29;20448;-77
2021/06/22 11:49:19;;;;;;;12.43;8.93;;;19.60;99.90;;;;;;4952932;29;20176;-77
2021/06/22 11:51:47;;;;;;;8.80;7.90;;;19.60;99.90;;;;;;4953259;28;20271;-77
2021/06/22 11:54:18;;;;;;;6.70;6.00;;;19.60;99.90;;;;;;4952637;29;20176;-77
2021/06/22 11:56:45;;;;;;;6.33;5.00;;;19.60;99.90;;;;;;4953233;29;20420;-77
2021/06/22 11:59:11;;;;;;;7.93;5.70;;;19.50;99.90;;;;;;4952917;29;20773;-77
2021/06/22 12:01:43;;;;;;;7.93;6.67;;;19.40;99.90;;;;;;4953047;28;20490;-77
2021/06/22 12:04:09;;;;;;;7.77;6.00;;;19.40;99.90;;;;;;4955714;28;20180;-77
2021/06/22 12:06:34;;;;;;;10.07;7.00;;;19.30;99.90;;;;;;4956762;29;20455;-77
2021/06/22 12:09:00;;;;;;;8.80;7.90;;;19.20;99.90;;;;;;4956883;29;20483;-78
2021/06/22 12:11:32;;;;;;;8.47;7.67;;;19.20;99.90;;;;;;4956520;28;20283;-77
2021/06/22 12:13:58;;;;;;;6.73;6.03;;;19.10;99.90;;;;;;4956631;29;20248;-77
2021/06/22 12:16:28;;;;;;;6.60;5.77;;;19.10;99.90;;;;;;4956568;29;20444;-77
2021/06/22 12:19:00;;;;;;;6.37;5.80;;;19.10;99.90;;;;;;4956795;29;20173;-77
2021/06/22 12:21:27;;;;;;;11.63;6.80;;;19.00;99.90;;;;;;4956520;28;20472;-77
2021/06/22 12:24:00;;;;;;;8.03;7.23;;;19.00;99.90;;;;;;4939234;29;20986;-77
2021/06/22 12:26:25;;;;;;;8.93;6.90;;;19.00;99.90;;;;;;4956726;29;20637;-78
2021/06/22 12:28:51;;;;;;;7.43;6.73;;;18.90;99.90;;;;;;4956661;29;20507;-77
2021/06/22 12:31:17;;;;;;;7.67;6.90;;;18.90;99.90;;;;;;4956232;28;20204;-78
2021/06/22 12:33:45;;;;;;;6.90;6.23;;;18.90;99.90;;;;;;4956787;29;20177;-77
2021/06/22 12:36:17;;;;;;;8.00;7.20;;;18.80;99.90;;;;;;4956708;29;20658;-77
2021/06/22 12:38:43;;;;;;;9.30;7.17;;;18.70;99.90;;;;;;4956908;29;20416;-77
2021/06/22 12:41:10;;;;;;;7.83;7.00;;;18.80;99.90;;;;;;4956206;28;20960;-77
2021/06/22 12:43:45;;;;;;;7.77;6.10;;;18.70;99.90;;;;;;4956321;29;20938;-77
2021/06/22 12:46:12;;;;;;;5.57;5.07;;;18.60;99.90;;;;;;4939013;29;20491;-78
2021/06/22 12:48:39;;;;;;;6.90;6.13;;;18.50;99.90;;;;;;4956254;29;20424;-78
2021/06/22 12:51:05;;;;;;;6.53;5.70;;;18.60;99.90;;;;;;4956288;28;20464;-78
2021/06/22 12:53:32;;;;;;;13.40;7.03;;;18.60;99.90;;;;;;4955638;29;20848;-78
2021/06/22 12:56:20;;;;;;;11.53;7.47;;;18.50;99.90;;;;;;4956048;29;20512;-76
2021/06/22 12:58:50;;;;;;;16.30;7.90;;;18.40;99.90;;;;;;4956331;29;20456;-78
2021/06/22 13:01:29;;;;;;;13.23;8.10;;;18.30;99.90;;;;;;4955854;28;20428;-78
2021/06/22 13:03:55;;;;;;;8.53;6.97;;;18.10;99.90;;;;;;4955664;29;20412;-79
2021/06/22 13:06:35;;;;;;;10.10;8.63;;;18.20;99.90;;;;;;4956524;29;20517;-78
2021/06/22 13:09:16;;;;;;;8.43;6.67;;;18.30;99.90;;;;;;4956297;29;20168;-78
2021/06/22 13:11:47;;;;;;;10.63;9.13;;;18.50;99.90;;;;;;4956782;28;20865;-78
2021/06/22 13:14:16;;;;;;;10.73;6.97;;;18.80;99.90;;;;;;4937531;29;20585;-78
2021/06/22 13:16:43;;;;;;;9.67;7.90;;;18.90;99.90;;;;;;4956119;29;20779;-77
2021/06/22 13:19:17;;;;;;;14.20;8.60;;;19.00;99.90;;;;;;4955578;29;20420;-77
2021/06/22 13:21:52;;;;;;;10.40;8.30;;;19.30;99.90;;;;;;4955822;28;20436;-77
2021/06/22 13:24:27;;;;;;;6.73;6.13;;;19.40;99.90;;;;;;4955261;29;20427;-78
2021/06/22 13:26:53;;;;;;;5.60;5.13;;;19.50;99.90;;;;;;4955413;29;20996;-78
2021/06/22 13:29:19;;;;;;;5.13;3.57;;;19.70;99.90;;;;;;4955135;29;20781;-78
2021/06/22 13:31:55;;;;;;;4.17;3.87;;;19.80;99.90;;;;;;4955113;28;20452;-78
2021/06/22 13:34:34;;;;;;;2.80;2.60;;;19.80;99.90;;;;;;4955042;29;20204;-78
2021/06/22 13:37:03;;;;;;;2.20;2.10;;;19.80;99.90;;;;;;4955332;29;20448;-78
2021/06/22 13:39:29;;;;;;;3.03;2.80;;;19.80;99.90;;;;;;4955042;29;20447;-78
2021/06/22 13:41:58;;;;;;;2.87;2.60;;;19.80;99.90;;;;;;4955022;28;20441;-78
2021/06/22 13:44:41;;;;;;;6.00;2.97;;;20.00;99.90;;;;;;4954911;29;20421;-78
2021/06/22 13:47:09;;;;;;;3.73;2.50;;;19.90;99.90;;;;;;4955010;29;20470;-79
2021/06/22 13:49:44;;;;;;;3.60;3.30;;;19.90;99.90;;;;;;4954872;29;20428;-77
2021/06/22 13:52:11;;;;;;;3.47;3.17;;;20.00;99.90;;;;;;4954881;28;20450;-77
2021/06/22 13:54:57;;;;;;;3.53;3.30;;;20.10;99.90;;;;;;4954912;29;20499;-78
2021/06/22 13:57:22;;;;;;;3.07;2.93;;;20.20;99.90;;;;;;4954582;29;20452;-78
2021/06/22 13:59:48;;;;;;;2.67;2.47;;;20.30;99.90;;;;;;4955238;29;20432;-77
2021/06/22 14:02:14;;;;;;;2.13;2.03;;;20.50;99.90;;;;;;4954826;28;20232;-77
2021/06/22 14:04:42;;;;;;;4.87;4.40;;;20.70;99.90;;;;;;4954723;29;20284;-78
2021/06/22 14:07:08;;;;;;;4.53;2.57;;;20.80;99.90;;;;;;4954849;29;20200;-78
2021/06/22 14:09:33;;;;;;;6.93;3.10;;;20.70;99.90;;;;;;4954630;29;20421;-77
2021/06/22 14:11:59;;;;;;;4.90;3.80;;;20.60;99.90;;;;;;4954941;28;20205;-77
2021/06/22 14:14:24;;;;;;;5.57;3.60;;;20.50;99.90;;;;;;4954275;29;20232;-78
2021/06/22 14:16:50;;;;;;;4.97;3.47;;;20.40;99.90;;;;;;4954714;29;20267;-78
2021/06/22 14:19:18;;;;;;;11.20;4.50;;;20.40;99.90;;;;;;4937279;29;20602;-77
2021/06/22 14:21:44;;;;;;;4.30;3.90;;;20.50;99.90;;;;;;4954564;28;20204;-77
2021/06/22 14:24:10;;;;;;;3.30;3.07;;;20.60;99.90;;;;;;4954179;29;20427;-78
2021/06/22 14:26:35;;;;;;;2.80;2.70;;;20.70;99.90;;;;;;4954153;28;20463;-79
2021/06/22 14:29:01;;;;;;;3.53;3.30;;;20.80;99.90;;;;;;4954448;29;20260;-78
2021/06/22 14:31:28;;;;;;;3.40;3.20;;;20.90;99.90;;;;;;4953998;28;20216;-77
2021/06/22 14:33:54;;;;;;;4.03;3.73;;;20.90;99.90;;;;;;4954145;29;20706;-78
2021/06/22 14:36:19;;;;;;;3.40;3.20;;;20.70;99.90;;;;;;4954046;29;20420;-78
2021/06/22 14:38:45;;;;;;;2.90;2.67;;;20.60;99.90;;;;;;4967411;28;20211;-79
2021/06/22 14:41:10;;;;;;;4.80;3.93;;;20.60;99.90;;;;;;4972948;28;20216;-77
2021/06/22 14:43:36;;;;;;;2.83;2.63;;;20.50;99.90;;;;;;4972946;28;20176;-77
2021/06/22 14:46:02;;;;;;;3.73;3.20;;;20.60;99.90;;;;;;4973390;28;20203;-77
2021/06/22 14:48:29;;;;;;;3.60;2.30;;;20.60;99.90;;;;;;4973085;28;20183;-78
2021/06/22 14:50:54;;;;;;;2.83;2.73;;;20.60;99.90;;;;;;4972955;28;20502;-78
2021/06/22 14:53:20;;;;;;;2.60;2.20;;;20.50;99.90;;;;;;4972679;28;20502;-78
2021/06/22 14:55:47;;;;;;;2.10;1.60;;;20.70;99.90;;;;;;4973182;28;20188;-77
2021/06/22 14:58:19;;;;;;;1.83;1.73;;;20.80;99.90;;;;;;4955678;28;20192;-77
2021/06/22 15:00:47;;;;;;;2.07;1.83;;;20.80;99.90;;;;;;4972949;28;20400;-77
2021/06/22 15:03:13;;;;;;;3.03;1.80;;;20.80;99.90;;;;;;4972559;28;20846;-78
2021/06/22 15:05:39;;;;;;;7.50;2.40;;;20.80;99.90;;;;;;4973054;28;20782;-77
2021/06/22 15:08:06;;;;;;;2.13;1.80;;;20.80;99.90;;;;;;4955268;28;20459;-78
2021/06/22 15:10:33;;;;;;;2.37;2.20;;;20.80;99.90;;;;;;4970764;28;20436;-77
2021/06/22 15:12:59;;;;;;;5.17;2.10;;;20.70;99.90;;;;;;4972348;28;20432;-78
2021/06/22 15:15:25;;;;;;;2.30;1.87;;;20.70;99.90;;;;;;4972674;28;20418;-78
2021/06/22 15:17:52;;;;;;;2.40;2.20;;;20.80;99.90;;;;;;4955474;28;20549;-78
2021/06/22 15:20:20;;;;;;;1.90;1.80;;;20.90;99.90;;;;;;4972309;28;20415;-78
2021/06/22 15:22:47;;;;;;;4.10;2.00;;;21.00;99.90;;;;;;4972413;28;20443;-77
2021/06/22 15:25:15;;;;;;;2.10;1.70;;;21.00;99.90;;;;;;4972299;28;20430;-78
2021/06/22 15:27:41;;;;;;;2.10;2.00;;;21.00;99.90;;;;;;4972603;28;20455;-79
2021/06/22 15:30:10;;;;;;;2.33;1.53;;;21.00;99.90;;;;;;4972631;28;20418;-72
2021/06/22 15:32:38;;;;;;;5.33;1.53;;;21.10;99.90;;;;;;4971986;28;20445;-72
2021/06/22 15:35:05;;;;;;;1.90;1.80;;;21.30;99.90;;;;;;4972123;28;20777;-73
2021/06/22 15:37:30;;;;;;;1.70;1.60;;;21.40;99.90;;;;;;4971164;28;20429;-74
2021/06/22 15:39:56;;;;;;;4.40;2.03;;;21.40;99.90;;;;;;4972199;28;20415;-73
2021/06/22 15:42:21;;;;;;;2.83;2.30;;;21.50;99.90;;;;;;4971997;28;20611;-73
2021/06/22 15:44:48;;;;;;;4.83;2.00;;;21.60;99.90;;;;;;4972130;28;20207;-73
2021/06/22 15:47:14;;;;;;;1.70;1.60;;;21.70;99.90;;;;;;4971810;28;20203;-73
2021/06/22 15:49:39;;;;;;;2.13;1.50;;;21.90;99.90;;;;;;4971981;28;20502;-74
2021/06/22 15:52:05;;;;;;;2.33;1.77;;;21.90;99.90;;;;;;4972005;28;20199;-74
2021/06/22 15:54:32;;;;;;;1.80;1.70;;;22.00;99.90;;;;;;4971933;28;20180;-74
2021/06/22 15:56:57;;;;;;;1.83;1.73;;;21.90;99.90;;;;;;4972128;28;20247;-74
2021/06/22 15:59:23;;;;;;;1.60;1.47;;;22.00;99.90;;;;;;4972205;28;20828;-73
2021/06/22 16:01:49;;;;;;;1.87;1.77;;;22.00;99.90;;;;;;4972474;28;20629;-72
2021/06/22 16:04:16;;;;;;;1.70;1.60;;;21.90;99.90;;;;;;4954410;28;20271;-72
2021/06/22 16:06:42;;;;;;;2.50;1.70;;;21.80;99.90;;;;;;4954822;28;20470;-74
2021/06/22 16:09:08;;;;;;;2.20;1.50;;;21.70;99.90;;;;;;4972973;28;20439;-71
2021/06/22 16:11:34;;;;;;;5.40;1.63;;;21.60;99.90;;;;;;4980950;28;20454;-73
2021/06/22 16:14:00;;;;;;;2.50;2.30;;;21.60;99.90;;;;;;4972360;28;20883;-73
2021/06/22 16:16:25;;;;;;;3.20;2.83;;;21.60;99.90;;;;;;4972126;28;20601;-73
2021/06/22 16:18:51;;;;;;;3.10;2.90;;;21.60;99.90;;;;;;4972181;28;20483;-72
2021/06/22 16:21:16;;;;;;;2.70;2.53;;;21.70;99.90;;;;;;4971917;28;20199;-73
2021/06/22 16:23:42;;;;;;;4.57;2.97;;;21.60;99.90;;;;;;4972294;28;20184;-72
2021/06/22 16:26:11;;;;;;;3.20;2.97;;;21.60;99.90;;;;;;4972051;28;20180;-72
2021/06/22 16:28:36;;;;;;;3.83;3.53;;;21.50;99.90;;;;;;4972351;28;20555;-73
2021/06/22 16:31:03;;;;;;;4.30;3.70;;;21.60;99.90;;;;;;4972163;28;20455;-72
2021/06/22 16:33:28;;;;;;;3.53;3.00;;;21.70;99.90;;;;;;4972124;28;20164;-73
2021/06/22 16:35:54;;;;;;;2.97;2.67;;;21.70;99.90;;;;;;4972198;28;20415;-72
2021/06/22 16:38:20;;;;;;;3.20;3.00;;;21.70;99.90;;;;;;4972254;28;20184;-72
2021/06/22 16:40:46;;;;;;;3.20;2.90;;;21.70;99.90;;;;;;4971923;28;20503;-74
2021/06/22 16:43:11;;;;;;;2.67;2.47;;;21.70;99.90;;;;;;4971790;28;20648;-73
2021/06/22 16:45:39;;;;;;;5.23;2.50;;;21.60;99.90;;;;;;4954518;28;20211;-73
2021/06/22 16:48:07;;;;;;;2.63;2.43;;;21.50;99.90;;;;;;4971931;28;20200;-73
2021/06/22 16:50:34;;;;;;;3.10;2.47;;;21.50;99.90;;;;;;4974993;28;20422;-72
2021/06/22 16:53:00;;;;;;;2.83;2.70;;;21.40;99.90;;;;;;4975309;28;20781;-73
2021/06/22 16:55:26;;;;;;;8.23;2.50;;;21.30;99.90;;;;;;4975621;28;20415;-75
2021/06/22 16:57:54;;;;;;;3.03;2.73;;;21.20;99.90;;;;;;4975458;28;20224;-74
2021/06/22 17:00:28;;;;;;;3.30;3.00;;;21.10;99.90;;;;;;4975133;28;20180;-74
2021/06/22 17:02:55;;;;;;;4.13;2.00;;;21.20;99.90;;;;;;4975198;28;20431;-74
2021/06/22 17:05:21;;;;;;;2.50;2.40;;;21.10;99.90;;;;;;4974998;28;20423;-74
2021/06/22 17:07:47;;;;;;;2.63;2.40;;;21.10;99.90;;;;;;4957803;28;20455;-73
2021/06/22 17:10:15;;;;;;;2.97;2.77;;;21.00;99.90;;;;;;4975059;28;20181;-73
2021/06/22 17:12:41;;;;;;;6.13;2.80;;;21.00;99.90;;;;;;4975122;28;20192;-75
2021/06/22 17:15:08;;;;;;;3.80;3.20;;;21.00;99.90;;;;;;4975056;28;20925;-74
2021/06/22 17:17:33;;;;;;;2.87;2.77;;;21.00;99.90;;;;;;4974967;28;20837;-74